Terminal Aerodrome Forecast
Issued by NWS

Home | Current Version | Previous Version | Text Only | Print | Product List | Glossary On
Versions: 1 2 3 4 5 6 7 8 9 10 11 12 13 14 15
305
FTUS41 KBTV 300530
TAFMPV
TAF
KMPV 300530Z 3006/3106 17008KT 6SM -SHRA BR BKN004 OVC020
     FM300900 VRB03KT P6SM VCSH OVC025
     FM301300 18006KT P6SM VCSH OVC040
     FM301700 21008KT P6SM SCT140=

USA.gov is the U.S. government's official web portal to all federal, state and local government web resources and services.